Kris Kin — 9V2739 — position and weather

sailwx.info

Track history (hours):
 
Tides and Currents Weather Stations Pressure Air Temp Water Temp Dewpoint Dewpoint Depression Visibility Wind Speed Wind Dir Waves Ship Positions

Kris Kin

Last reported at 2017-Dec-11 17:00 UTC. Time now 2017-Dec-12 20:10 UTC.
Position N 50°42' W 001°01'.

Length 120 m; draft 6.2 m.

Type: Tanker. MMSI: 566481000.

Date/timePositionNaut miles runAvg speedWind from/ knotsBaromVisibWave heightAir tempDewpointWater temp
2017-Dec-11 17:00N 50°42' W 001°01'0 0.0
2017-Dec-11 16:30N 50°42' W 001°01'0 0.0
2017-Dec-11 16:00N 50°42' W 001°01'0 0.0
2017-Dec-11 15:30N 50°42' W 001°01'0 0.6
2017-Dec-11 15:00N 50°42' W 001°00'2 4.7
2017-Dec-11 14:30N 50°40' W 000°59'611.7
2017-Dec-11 14:00N 50°34' W 000°59'611.6
2017-Dec-11 13:30N 50°28' W 001°00'610.4
2017-Dec-11 12:55N 50°24' W 001°06'511.8
2017-Dec-11 12:30N 50°22' W 001°13'35 6.4
2017-Dec-11 07:00N 50°24' W 000°18'312.6 080 / 14977.0 5.4 9.0 6.910.0
2017-Dec-11 06:44N 50°27' W 000°15'315.2
2017-Dec-11 06:30N 50°28' W 000°10'714.9
2017-Dec-11 06:00N 50°30' E 000°01'1014.4
2017-Dec-11 05:20N 50°32' E 000°16'613.9
2017-Dec-11 04:54N 50°34' E 000°25'713.1
2017-Dec-11 04:23N 50°37' E 000°35'513.3
2017-Dec-11 04:00N 50°40' E 000°41'713.6
2017-Dec-11 03:31N 50°44' E 000°49'713.8
2017-Dec-11 03:00N 50°48' E 000°58'714.3
2017-Dec-11 02:30N 50°53' E 001°07'815.0
2017-Dec-11 01:56N 50°59' E 001°17'715.9
2017-Dec-11 01:30N 51°03' E 001°25'816.6
2017-Dec-11 01:00N 51°08' E 001°36'816.1
2017-Dec-11 00:30N 51°13' E 001°45'815.3
2017-Dec-11 00:01N 51°20' E 001°52'714.7
2017-Dec-10 23:31N 51°26' E 001°58'714.0
2017-Dec-10 23:01N 51°31' E 002°06'713.6
2017-Dec-10 22:29N 51°36' E 002°13'6011.3
2017-Dec-10 17:13N 52°04' E 003°39'312.3
2017-Dec-10 17:00N 52°04' E 003°43'611.4
2017-Dec-10 16:31N 52°04' E 003°52'3 5.8
2017-Dec-10 16:01N 52°02' E 003°56'510.9
2017-Dec-10 15:31N 51°59' E 004°04'510.0
2017-Dec-10 15:01N 51°57' E 004°11'0 0.1
2017-Dec-10 14:22N 51°57' E 004°11'0 0.0
2017-Dec-10 13:55N 51°57' E 004°11'0 0.0
2017-Dec-10 13:16N 51°57' E 004°11'0 0.0
2017-Dec-09 20:05N 51°57' E 004°11'0 0.3
2017-Dec-09 20:00N 51°57' E 004°11'1 2.8
2017-Dec-09 19:30N 51°57' E 004°09'3 6.9
2017-Dec-09 19:01N 51°59' E 004°04'611.6
2017-Dec-09 18:30N 52°00' E 003°55'4 8.4
2017-Dec-09 18:00N 52°00' E 003°48'510.4
2017-Dec-09 17:29N 51°56' E 003°42'2 3.6
2017-Dec-09 16:59N 51°54' E 003°42'0 0.3
2017-Dec-09 16:05N 51°54' E 003°42'0 1.0
2017-Dec-09 15:59N 51°54' E 003°42'0 0.7
2017-Dec-09 15:30N 51°54' E 003°43'1 1.3
2017-Dec-09 14:56N 51°54' E 003°42'0 0.3
2017-Dec-09 14:29N 51°54' E 003°42'1 0.8
2017-Dec-09 13:51N 51°54' E 003°41'1 1.4
2017-Dec-09 13:21N 51°54' E 003°42'0 0.2
2017-Dec-09 12:33N 51°54' E 003°42'0 0.3
2017-Dec-09 12:27N 51°54' E 003°42'1 1.0
2017-Dec-09 11:54N 51°54' E 003°41'1 1.6
2017-Dec-09 11:30N 51°54' E 003°42'0 0.2
2017-Dec-09 09:49N 51°54' E 003°42'1 0.8
2017-Dec-09 08:59N 51°54' E 003°43'0 0.2
2017-Dec-09 08:29N 51°54' E 003°43'0 0.0
2017-Dec-09 08:00N 51°54' E 003°43'0 0.9
2017-Dec-09 07:28N 51°54' E 003°42'0 0.1
2017-Dec-09 06:49N 51°54' E 003°42'1 1.4
2017-Dec-09 06:28N 51°54' E 003°43'0 0.9
2017-Dec-09 06:00N 51°54' E 003°42'0 0.3
2017-Dec-09 05:29N 51°54' E 003°42'0 0.8
2017-Dec-09 05:00N 51°54' E 003°43'0 0.2
2017-Dec-09 04:30N 51°54' E 003°43'0 0.7
2017-Dec-09 03:59N 51°54' E 003°42'0 0.1
2017-Dec-09 03:30N 51°54' E 003°42'0 0.3
2017-Dec-09 03:00N 51°54' E 003°43'1 1.1
2017-Dec-09 02:30N 51°54' E 003°42'0 0.6
2017-Dec-09 02:00N 51°54' E 003°42'0 0.8
2017-Dec-09 01:26N 51°54' E 003°42'0 0.8
2017-Dec-09 01:00N 51°54' E 003°42'0 0.3
2017-Dec-09 00:27N 51°54' E 003°42'1 0.9
2017-Dec-08 23:52N 51°54' E 003°41'0 0.7
2017-Dec-08 23:27N 51°54' E 003°42'0 0.1
2017-Dec-08 22:21N 51°54' E 003°42'0 0.6
2017-Dec-08 21:58N 51°54' E 003°41'1 1.2
2017-Dec-08 21:29N 51°54' E 003°42'0 0.3
2017-Dec-08 20:43N 51°54' E 003°42'0 0.7
2017-Dec-08 20:25N 51°54' E 003°42'0 0.6
2017-Dec-08 20:00N 51°54' E 003°42'1 1.2
2017-Dec-08 19:29N 51°54' E 003°43'1 1.1
2017-Dec-08 19:00N 51°54' E 003°42'1 1.3
2017-Dec-08 18:30N 51°54' E 003°43'0 0.9
2017-Dec-08 17:59N 51°54' E 003°44'0 1.0
2017-Dec-08 17:30N 51°54' E 003°43'0 0.5
2017-Dec-08 16:50N 51°54' E 003°43'0 0.3
2017-Dec-08 16:18N 51°54' E 003°43'0 1.0
2017-Dec-08 16:00N 51°54' E 003°42'1 1.3
2017-Dec-08 15:30N 51°54' E 003°43'0 0.4
2017-Dec-08 15:00N 51°54' E 003°44'0 0.8
2017-Dec-08 14:30N 51°53' E 003°43'0 1.0
2017-Dec-08 14:00N 51°54' E 003°43'0 0.3
2017-Dec-08 13:30N 51°54' E 003°42'0 0.4
2017-Dec-08 13:00N 51°54' E 003°42'0 0.6
2017-Dec-08 12:30N 51°53' E 003°42'0 0.9
2017-Dec-08 11:59N 51°54' E 003°42'0 0.8
2017-Dec-08 11:30N 51°54' E 003°42'1 1.4
2017-Dec-08 10:47N 51°54' E 003°43'0 0.6
2017-Dec-08 10:25N 51°54' E 003°43'0 0.5
2017-Dec-08 10:00N 51°54' E 003°43'0 0.6
2017-Dec-08 09:30N 51°54' E 003°43'0 0.6
2017-Dec-08 09:00N 51°55' E 003°44'0 0.5
2017-Dec-08 08:29N 51°55' E 003°43'0 0.8
2017-Dec-08 08:00N 51°54' E 003°44'1 1.2
2017-Dec-08 07:30N 51°54' E 003°43'1 1.0
2017-Dec-08 06:58N 51°54' E 003°43'0 0.4
2017-Dec-08 06:23N 51°54' E 003°43'1 2.8
2017-Dec-08 06:00N 51°55' E 003°44'0 0.3
2017-Dec-08 05:30N 51°56' E 003°44'0 0.0
2017-Dec-08 04:42N 51°56' E 003°44'0 0.2
2017-Dec-08 04:27N 51°55' E 003°44'0 0.0
2017-Dec-08 03:45N 51°55' E 003°44'0 0.2
2017-Dec-08 03:24N 51°55' E 003°43'0 0.1
2017-Dec-08 00:06N 51°55' E 003°43'0 0.0
2017-Dec-07 23:54N 51°55' E 003°43'0 0.0
2017-Dec-07 22:51N 51°55' E 003°43'2 4.3
2017-Dec-07 22:30N 51°57' E 003°42'2 4.6
2017-Dec-07 22:00N 51°58' E 003°38'48 5.7
2017-Dec-07 13:40N 51°38' E 002°28'715.0
2017-Dec-07 13:13N 51°33' E 002°21'315.3
2017-Dec-07 13:00N 51°30' E 002°18'714.6
2017-Dec-07 12:30N 51°24' E 002°13'714.4
2017-Dec-07 12:01N 51°17' E 002°07'714.0
2017-Dec-07 11:31N 51°12' E 001°60'713.8
2017-Dec-07 11:01N 51°09' E 001°50'713.7
2017-Dec-07 10:30N 51°05' E 001°41'713.6
2017-Dec-07 10:00N 51°00' E 001°33'713.2
2017-Dec-07 09:30N 50°55' E 001°28'713.5
2017-Dec-07 09:00N 50°48' E 001°26'4612.8
2017-Dec-07 05:25N 50°24' E 000°24'613.2
2017-Dec-07 04:56N 50°22' E 000°15'613.0
2017-Dec-07 04:29N 50°20' E 000°06'613.0
2017-Dec-07 04:00N 50°19' W 000°04'713.0
2017-Dec-07 03:30N 50°17' W 000°14'1712.8
2017-Dec-07 02:12N 50°02' W 000°23'314.6
2017-Dec-07 02:00N 49°59' W 000°24'714.6
2017-Dec-07 01:30N 49°52' W 000°27'714.5
2017-Dec-07 01:01N 49°45' W 000°30'713.2
2017-Dec-07 00:31N 49°39' W 000°25'714.0
2017-Dec-07 00:01N 49°34' W 000°19'713.4
2017-Dec-06 23:30N 49°31' W 000°10'612.7
2017-Dec-06 23:00N 49°28' W 000°01'510.2
2017-Dec-06 22:31N 49°26' E 000°07'510.8
2017-Dec-06 22:01N 49°26' E 000°15'4 8.6
2017-Dec-06 21:30N 49°26' E 000°22'5 9.2
2017-Dec-06 21:01N 49°28' E 000°28'  
2017-Dec-03 15:24N 50°51' W 001°20'1 2.5
2017-Dec-03 15:01N 50°50' W 001°19'3 6.5
2017-Dec-03 14:30N 50°47' W 001°19'713.2
2017-Dec-03 14:01N 50°46' W 001°08'510.9
2017-Dec-03 13:30N 50°43' W 001°01'0 0.4
2017-Dec-03 12:58N 50°42' W 001°01'0 0.1
2017-Dec-03 12:28N 50°42' W 001°01'0 0.0
2017-Dec-03 11:58N 50°42' W 001°01'0 0.0
2017-Dec-03 11:28N 50°42' W 001°01'0 0.0
2017-Dec-03 10:58N 50°42' W 001°01'0 0.1
2017-Dec-03 10:28N 50°42' W 001°01'0 0.1
2017-Dec-03 09:58N 50°42' W 001°01'0 0.1
2017-Dec-03 09:28N 50°42' W 001°01'0 0.0
2017-Dec-03 08:58N 50°42' W 001°01'0 0.0
2017-Dec-03 08:28N 50°42' W 001°01'0 0.0
2017-Dec-03 07:59N 50°42' W 001°01'0 0.0
2017-Dec-03 07:28N 50°42' W 001°01'0 0.0
2017-Dec-03 06:58N 50°42' W 001°01'0 0.0
2017-Dec-03 06:28N 50°42' W 001°01'0 0.0
2017-Dec-03 05:59N 50°42' W 001°01'0 0.0
2017-Dec-03 05:29N 50°42' W 001°01'0 0.0
2017-Dec-03 04:58N 50°42' W 001°01'0 0.0
2017-Dec-03 04:28N 50°42' W 001°01'0 0.0
2017-Dec-03 03:58N 50°42' W 001°01'0 0.0
2017-Dec-03 03:28N 50°42' W 001°01'0 0.0
2017-Dec-03 02:58N 50°42' W 001°01'0 0.0
2017-Dec-03 02:28N 50°42' W 001°01'0 0.0
2017-Dec-03 01:58N 50°42' W 001°01'0 0.0
2017-Dec-03 01:28N 50°42' W 001°01'0 0.0
2017-Dec-03 00:58N 50°42' W 001°01'0 0.1
2017-Dec-03 00:28N 50°42' W 001°01'0 0.1
2017-Dec-02 23:58N 50°42' W 001°01'0 0.0
2017-Dec-02 23:28N 50°42' W 001°01'0 0.0
2017-Dec-02 22:58N 50°42' W 001°01'0 0.0
2017-Dec-02 22:28N 50°42' W 001°01'0 0.1
2017-Dec-02 21:58N 50°43' W 001°01'0 0.1
2017-Dec-02 21:28N 50°43' W 001°01'0 0.0
2017-Dec-02 20:58N 50°43' W 001°01'0 0.0
2017-Dec-02 20:28N 50°43' W 001°01'0 0.0
2017-Dec-02 19:58N 50°43' W 001°01'0 0.1
2017-Dec-02 19:28N 50°42' W 001°01'0 0.0
2017-Dec-02 18:58N 50°42' W 001°01'0 0.0
2017-Dec-02 18:28N 50°42' W 001°01'0 0.0
2017-Dec-02 17:58N 50°42' W 001°01'0 0.0
2017-Dec-02 17:28N 50°42' W 001°01'0 0.0
2017-Dec-02 16:58N 50°42' W 001°01'0 0.0
2017-Dec-02 16:28N 50°42' W 001°01'0 0.0
2017-Dec-02 15:58N 50°42' W 001°01'0 0.0
2017-Dec-02 15:28N 50°42' W 001°01'0 0.0
2017-Dec-02 14:58N 50°42' W 001°01'0 0.0
2017-Dec-02 14:28N 50°42' W 001°01'0 0.0
2017-Dec-02 13:58N 50°42' W 001°01'0 0.0
2017-Dec-02 13:28N 50°42' W 001°01'0 0.0
2017-Dec-02 12:58N 50°42' W 001°01'0 0.1
2017-Dec-02 12:28N 50°42' W 001°01'0 0.1
2017-Dec-02 11:58N 50°42' W 001°01'0 0.1
2017-Dec-02 11:28N 50°42' W 001°01'0 0.0
2017-Dec-02 10:58N 50°42' W 001°01'0 0.0
2017-Dec-02 10:28N 50°42' W 001°01'0 0.0
2017-Dec-02 09:58N 50°42' W 001°01'0 0.0
2017-Dec-02 09:28N 50°42' W 001°01'0 0.1
2017-Dec-02 08:58N 50°43' W 001°01'0 0.1
2017-Dec-02 08:25N 50°43' W 001°01'0 0.0
2017-Dec-02 07:58N 50°43' W 001°01'0 0.1
2017-Dec-02 07:28N 50°43' W 001°01'0 0.0
2017-Dec-02 06:58N 50°43' W 001°01'0 0.0
2017-Dec-02 06:28N 50°42' W 001°01'0 0.0
2017-Dec-02 05:58N 50°42' W 001°01'0 0.0
2017-Dec-02 05:28N 50°42' W 001°01'0 0.0
2017-Dec-02 04:58N 50°42' W 001°01'0 0.0
2017-Dec-02 04:28N 50°42' W 001°01'0 0.0
2017-Dec-02 03:58N 50°42' W 001°01'0 0.1
2017-Dec-02 03:28N 50°42' W 001°01'0 0.1
2017-Dec-02 02:58N 50°42' W 001°01'0 0.0
2017-Dec-02 02:28N 50°42' W 001°01'0 0.0
2017-Dec-02 01:58N 50°42' W 001°01'0 0.0
2017-Dec-02 01:28N 50°42' W 001°01'0 0.0
2017-Dec-02 00:58N 50°42' W 001°01'0 0.0
2017-Dec-02 00:28N 50°42' W 001°01'0 0.0
2017-Dec-01 23:58N 50°42' W 001°01'0 0.0
2017-Dec-01 23:28N 50°42' W 001°01'0 0.0
2017-Dec-01 22:58N 50°42' W 001°01'0 0.0
2017-Dec-01 22:28N 50°42' W 001°01'0 0.0
2017-Dec-01 21:58N 50°42' W 001°01'0 0.0
2017-Dec-01 21:28N 50°42' W 001°01'0 0.0
2017-Dec-01 20:58N 50°42' W 001°01'0 0.0
2017-Dec-01 20:28N 50°42' W 001°01'0 0.0
2017-Dec-01 19:58N 50°42' W 001°01'0 0.1
2017-Dec-01 19:28N 50°42' W 001°01'0 0.0
2017-Dec-01 18:58N 50°42' W 001°01'0 0.0
2017-Dec-01 18:28N 50°42' W 001°01'0 0.0
2017-Dec-01 17:58N 50°42' W 001°01'0 0.0
2017-Dec-01 17:28N 50°42' W 001°01'  
Track history (hours):
 
Tides and Currents Weather Stations Pressure Air Temp Water Temp Dewpoint Dewpoint Depression Visibility Wind Speed Wind Dir Waves Ship Positions

Kris Kin

Last reported at 2017-Dec-11 17:00 UTC. Time now 2017-Dec-12 20:10 UTC.
Position N 50°42' W 001°01'.

Length 120 m; draft 6.2 m.

Type: Tanker. MMSI: 566481000.

Date/timePositionNaut miles runAvg speedWind from/ knotsBaromVisibWave heightAir tempDewpointWater temp
2017-Dec-11 17:00N 50°42' W 001°01'0 0.0
2017-Dec-11 16:30N 50°42' W 001°01'0 0.0
2017-Dec-11 16:00N 50°42' W 001°01'0 0.0
2017-Dec-11 15:30N 50°42' W 001°01'0 0.6
2017-Dec-11 15:00N 50°42' W 001°00'2 4.7
2017-Dec-11 14:30N 50°40' W 000°59'611.7
2017-Dec-11 14:00N 50°34' W 000°59'611.6
2017-Dec-11 13:30N 50°28' W 001°00'610.4
2017-Dec-11 12:55N 50°24' W 001°06'511.8
2017-Dec-11 12:30N 50°22' W 001°13'35 6.4
2017-Dec-11 07:00N 50°24' W 000°18'312.6 080 / 14977.0 5.4 9.0 6.910.0
2017-Dec-11 06:44N 50°27' W 000°15'315.2
2017-Dec-11 06:30N 50°28' W 000°10'714.9
2017-Dec-11 06:00N 50°30' E 000°01'1014.4
2017-Dec-11 05:20N 50°32' E 000°16'613.9
2017-Dec-11 04:54N 50°34' E 000°25'713.1
2017-Dec-11 04:23N 50°37' E 000°35'513.3
2017-Dec-11 04:00N 50°40' E 000°41'713.6
2017-Dec-11 03:31N 50°44' E 000°49'713.8
2017-Dec-11 03:00N 50°48' E 000°58'714.3
2017-Dec-11 02:30N 50°53' E 001°07'815.0
2017-Dec-11 01:56N 50°59' E 001°17'715.9
2017-Dec-11 01:30N 51°03' E 001°25'816.6
2017-Dec-11 01:00N 51°08' E 001°36'816.1
2017-Dec-11 00:30N 51°13' E 001°45'815.3
2017-Dec-11 00:01N 51°20' E 001°52'714.7
2017-Dec-10 23:31N 51°26' E 001°58'714.0
2017-Dec-10 23:01N 51°31' E 002°06'713.6
2017-Dec-10 22:29N 51°36' E 002°13'6011.3
2017-Dec-10 17:13N 52°04' E 003°39'312.3
2017-Dec-10 17:00N 52°04' E 003°43'611.4
2017-Dec-10 16:31N 52°04' E 003°52'3 5.8
2017-Dec-10 16:01N 52°02' E 003°56'510.9
2017-Dec-10 15:31N 51°59' E 004°04'510.0
2017-Dec-10 15:01N 51°57' E 004°11'0 0.1
2017-Dec-10 14:22N 51°57' E 004°11'0 0.0
2017-Dec-10 13:55N 51°57' E 004°11'0 0.0
2017-Dec-10 13:16N 51°57' E 004°11'0 0.0
2017-Dec-09 20:05N 51°57' E 004°11'0 0.3
2017-Dec-09 20:00N 51°57' E 004°11'1 2.8
2017-Dec-09 19:30N 51°57' E 004°09'3 6.9
2017-Dec-09 19:01N 51°59' E 004°04'611.6
2017-Dec-09 18:30N 52°00' E 003°55'4 8.4
2017-Dec-09 18:00N 52°00' E 003°48'510.4
2017-Dec-09 17:29N 51°56' E 003°42'2 3.6
2017-Dec-09 16:59N 51°54' E 003°42'0 0.3
2017-Dec-09 16:05N 51°54' E 003°42'0 1.0
2017-Dec-09 15:59N 51°54' E 003°42'0 0.7
2017-Dec-09 15:30N 51°54' E 003°43'1 1.3
2017-Dec-09 14:56N 51°54' E 003°42'0 0.3
2017-Dec-09 14:29N 51°54' E 003°42'1 0.8
2017-Dec-09 13:51N 51°54' E 003°41'1 1.4
2017-Dec-09 13:21N 51°54' E 003°42'0 0.2
2017-Dec-09 12:33N 51°54' E 003°42'0 0.3
2017-Dec-09 12:27N 51°54' E 003°42'1 1.0
2017-Dec-09 11:54N 51°54' E 003°41'1 1.6
2017-Dec-09 11:30N 51°54' E 003°42'0 0.2
2017-Dec-09 09:49N 51°54' E 003°42'1 0.8
2017-Dec-09 08:59N 51°54' E 003°43'0 0.2
2017-Dec-09 08:29N 51°54' E 003°43'0 0.0
2017-Dec-09 08:00N 51°54' E 003°43'0 0.9
2017-Dec-09 07:28N 51°54' E 003°42'0 0.1
2017-Dec-09 06:49N 51°54' E 003°42'1 1.4
2017-Dec-09 06:28N 51°54' E 003°43'0 0.9
2017-Dec-09 06:00N 51°54' E 003°42'0 0.3
2017-Dec-09 05:29N 51°54' E 003°42'0 0.8
2017-Dec-09 05:00N 51°54' E 003°43'0 0.2
2017-Dec-09 04:30N 51°54' E 003°43'0 0.7
2017-Dec-09 03:59N 51°54' E 003°42'0 0.1
2017-Dec-09 03:30N 51°54' E 003°42'0 0.3
2017-Dec-09 03:00N 51°54' E 003°43'1 1.1
2017-Dec-09 02:30N 51°54' E 003°42'0 0.6
2017-Dec-09 02:00N 51°54' E 003°42'0 0.8
2017-Dec-09 01:26N 51°54' E 003°42'0 0.8
2017-Dec-09 01:00N 51°54' E 003°42'0 0.3
2017-Dec-09 00:27N 51°54' E 003°42'1 0.9
2017-Dec-08 23:52N 51°54' E 003°41'0 0.7
2017-Dec-08 23:27N 51°54' E 003°42'0 0.1
2017-Dec-08 22:21N 51°54' E 003°42'0 0.6
2017-Dec-08 21:58N 51°54' E 003°41'1 1.2
2017-Dec-08 21:29N 51°54' E 003°42'0 0.3
2017-Dec-08 20:43N 51°54' E 003°42'0 0.7
2017-Dec-08 20:25N 51°54' E 003°42'0 0.6
2017-Dec-08 20:00N 51°54' E 003°42'1 1.2
2017-Dec-08 19:29N 51°54' E 003°43'1 1.1
2017-Dec-08 19:00N 51°54' E 003°42'1 1.3
2017-Dec-08 18:30N 51°54' E 003°43'0 0.9
2017-Dec-08 17:59N 51°54' E 003°44'0 1.0
2017-Dec-08 17:30N 51°54' E 003°43'0 0.5
2017-Dec-08 16:50N 51°54' E 003°43'0 0.3
2017-Dec-08 16:18N 51°54' E 003°43'0 1.0
2017-Dec-08 16:00N 51°54' E 003°42'1 1.3
2017-Dec-08 15:30N 51°54' E 003°43'0 0.4
2017-Dec-08 15:00N 51°54' E 003°44'0 0.8
2017-Dec-08 14:30N 51°53' E 003°43'0 1.0
2017-Dec-08 14:00N 51°54' E 003°43'0 0.3
2017-Dec-08 13:30N 51°54' E 003°42'0 0.4
2017-Dec-08 13:00N 51°54' E 003°42'0 0.6
2017-Dec-08 12:30N 51°53' E 003°42'0 0.9
2017-Dec-08 11:59N 51°54' E 003°42'0 0.8
2017-Dec-08 11:30N 51°54' E 003°42'1 1.4
2017-Dec-08 10:47N 51°54' E 003°43'0 0.6
2017-Dec-08 10:25N 51°54' E 003°43'0 0.5
2017-Dec-08 10:00N 51°54' E 003°43'0 0.6
2017-Dec-08 09:30N 51°54' E 003°43'0 0.6
2017-Dec-08 09:00N 51°55' E 003°44'0 0.5
2017-Dec-08 08:29N 51°55' E 003°43'0 0.8
2017-Dec-08 08:00N 51°54' E 003°44'1 1.2
2017-Dec-08 07:30N 51°54' E 003°43'1 1.0
2017-Dec-08 06:58N 51°54' E 003°43'0 0.4
2017-Dec-08 06:23N 51°54' E 003°43'1 2.8
2017-Dec-08 06:00N 51°55' E 003°44'0 0.3
2017-Dec-08 05:30N 51°56' E 003°44'0 0.0
2017-Dec-08 04:42N 51°56' E 003°44'0 0.2
2017-Dec-08 04:27N 51°55' E 003°44'0 0.0
2017-Dec-08 03:45N 51°55' E 003°44'0 0.2
2017-Dec-08 03:24N 51°55' E 003°43'0 0.1
2017-Dec-08 00:06N 51°55' E 003°43'0 0.0
2017-Dec-07 23:54N 51°55' E 003°43'0 0.0
2017-Dec-07 22:51N 51°55' E 003°43'2 4.3
2017-Dec-07 22:30N 51°57' E 003°42'2 4.6
2017-Dec-07 22:00N 51°58' E 003°38'48 5.7
2017-Dec-07 13:40N 51°38' E 002°28'715.0
2017-Dec-07 13:13N 51°33' E 002°21'315.3
2017-Dec-07 13:00N 51°30' E 002°18'714.6
2017-Dec-07 12:30N 51°24' E 002°13'714.4
2017-Dec-07 12:01N 51°17' E 002°07'714.0
2017-Dec-07 11:31N 51°12' E 001°60'713.8
2017-Dec-07 11:01N 51°09' E 001°50'713.7
2017-Dec-07 10:30N 51°05' E 001°41'713.6
2017-Dec-07 10:00N 51°00' E 001°33'713.2
2017-Dec-07 09:30N 50°55' E 001°28'713.5
2017-Dec-07 09:00N 50°48' E 001°26'4612.8
2017-Dec-07 05:25N 50°24' E 000°24'613.2
2017-Dec-07 04:56N 50°22' E 000°15'613.0
2017-Dec-07 04:29N 50°20' E 000°06'613.0
2017-Dec-07 04:00N 50°19' W 000°04'713.0
2017-Dec-07 03:30N 50°17' W 000°14'1712.8
2017-Dec-07 02:12N 50°02' W 000°23'314.6
2017-Dec-07 02:00N 49°59' W 000°24'714.6
2017-Dec-07 01:30N 49°52' W 000°27'714.5
2017-Dec-07 01:01N 49°45' W 000°30'713.2
2017-Dec-07 00:31N 49°39' W 000°25'714.0
2017-Dec-07 00:01N 49°34' W 000°19'713.4
2017-Dec-06 23:30N 49°31' W 000°10'612.7
2017-Dec-06 23:00N 49°28' W 000°01'510.2
2017-Dec-06 22:31N 49°26' E 000°07'510.8
2017-Dec-06 22:01N 49°26' E 000°15'4 8.6
2017-Dec-06 21:30N 49°26' E 000°22'5 9.2
2017-Dec-06 21:01N 49°28' E 000°28'  
2017-Dec-03 15:24N 50°51' W 001°20'1 2.5
2017-Dec-03 15:01N 50°50' W 001°19'3 6.5
2017-Dec-03 14:30N 50°47' W 001°19'713.2
2017-Dec-03 14:01N 50°46' W 001°08'510.9
2017-Dec-03 13:30N 50°43' W 001°01'0 0.4
2017-Dec-03 12:58N 50°42' W 001°01'0 0.1
2017-Dec-03 12:28N 50°42' W 001°01'0 0.0
2017-Dec-03 11:58N 50°42' W 001°01'0 0.0
2017-Dec-03 11:28N 50°42' W 001°01'0 0.0
2017-Dec-03 10:58N 50°42' W 001°01'0 0.1
2017-Dec-03 10:28N 50°42' W 001°01'0 0.1
2017-Dec-03 09:58N 50°42' W 001°01'0 0.1
2017-Dec-03 09:28N 50°42' W 001°01'0 0.0
2017-Dec-03 08:58N 50°42' W 001°01'0 0.0
2017-Dec-03 08:28N 50°42' W 001°01'0 0.0
2017-Dec-03 07:59N 50°42' W 001°01'0 0.0
2017-Dec-03 07:28N 50°42' W 001°01'0 0.0
2017-Dec-03 06:58N 50°42' W 001°01'0 0.0
2017-Dec-03 06:28N 50°42' W 001°01'0 0.0
2017-Dec-03 05:59N 50°42' W 001°01'0 0.0
2017-Dec-03 05:29N 50°42' W 001°01'0 0.0
2017-Dec-03 04:58N 50°42' W 001°01'0 0.0
2017-Dec-03 04:28N 50°42' W 001°01'0 0.0
2017-Dec-03 03:58N 50°42' W 001°01'0 0.0
2017-Dec-03 03:28N 50°42' W 001°01'0 0.0
2017-Dec-03 02:58N 50°42' W 001°01'0 0.0
2017-Dec-03 02:28N 50°42' W 001°01'0 0.0
2017-Dec-03 01:58N 50°42' W 001°01'0 0.0
2017-Dec-03 01:28N 50°42' W 001°01'0 0.0
2017-Dec-03 00:58N 50°42' W 001°01'0 0.1
2017-Dec-03 00:28N 50°42' W 001°01'0 0.1
2017-Dec-02 23:58N 50°42' W 001°01'0 0.0
2017-Dec-02 23:28N 50°42' W 001°01'0 0.0
2017-Dec-02 22:58N 50°42' W 001°01'0 0.0
2017-Dec-02 22:28N 50°42' W 001°01'0 0.1
2017-Dec-02 21:58N 50°43' W 001°01'0 0.1
2017-Dec-02 21:28N 50°43' W 001°01'0 0.0
2017-Dec-02 20:58N 50°43' W 001°01'0 0.0
2017-Dec-02 20:28N 50°43' W 001°01'0 0.0
2017-Dec-02 19:58N 50°43' W 001°01'0 0.1
2017-Dec-02 19:28N 50°42' W 001°01'0 0.0
2017-Dec-02 18:58N 50°42' W 001°01'0 0.0
2017-Dec-02 18:28N 50°42' W 001°01'0 0.0
2017-Dec-02 17:58N 50°42' W 001°01'0 0.0
2017-Dec-02 17:28N 50°42' W 001°01'0 0.0
2017-Dec-02 16:58N 50°42' W 001°01'0 0.0
2017-Dec-02 16:28N 50°42' W 001°01'0 0.0
2017-Dec-02 15:58N 50°42' W 001°01'0 0.0
2017-Dec-02 15:28N 50°42' W 001°01'0 0.0
2017-Dec-02 14:58N 50°42' W 001°01'0 0.0
2017-Dec-02 14:28N 50°42' W 001°01'0 0.0
2017-Dec-02 13:58N 50°42' W 001°01'0 0.0
2017-Dec-02 13:28N 50°42' W 001°01'0 0.0
2017-Dec-02 12:58N 50°42' W 001°01'0 0.1
2017-Dec-02 12:28N 50°42' W 001°01'0 0.1
2017-Dec-02 11:58N 50°42' W 001°01'0 0.1
2017-Dec-02 11:28N 50°42' W 001°01'0 0.0
2017-Dec-02 10:58N 50°42' W 001°01'0 0.0
2017-Dec-02 10:28N 50°42' W 001°01'0 0.0
2017-Dec-02 09:58N 50°42' W 001°01'0 0.0
2017-Dec-02 09:28N 50°42' W 001°01'0 0.1
2017-Dec-02 08:58N 50°43' W 001°01'0 0.1
2017-Dec-02 08:25N 50°43' W 001°01'0 0.0
2017-Dec-02 07:58N 50°43' W 001°01'0 0.1
2017-Dec-02 07:28N 50°43' W 001°01'0 0.0
2017-Dec-02 06:58N 50°43' W 001°01'0 0.0
2017-Dec-02 06:28N 50°42' W 001°01'0 0.0
2017-Dec-02 05:58N 50°42' W 001°01'0 0.0
2017-Dec-02 05:28N 50°42' W 001°01'0 0.0
2017-Dec-02 04:58N 50°42' W 001°01'0 0.0
2017-Dec-02 04:28N 50°42' W 001°01'0 0.0
2017-Dec-02 03:58N 50°42' W 001°01'0 0.1
2017-Dec-02 03:28N 50°42' W 001°01'0 0.1
2017-Dec-02 02:58N 50°42' W 001°01'0 0.0
2017-Dec-02 02:28N 50°42' W 001°01'0 0.0
2017-Dec-02 01:58N 50°42' W 001°01'0 0.0
2017-Dec-02 01:28N 50°42' W 001°01'0 0.0
2017-Dec-02 00:58N 50°42' W 001°01'0 0.0
2017-Dec-02 00:28N 50°42' W 001°01'0 0.0
2017-Dec-01 23:58N 50°42' W 001°01'0 0.0
2017-Dec-01 23:28N 50°42' W 001°01'0 0.0
2017-Dec-01 22:58N 50°42' W 001°01'0 0.0
2017-Dec-01 22:28N 50°42' W 001°01'0 0.0
2017-Dec-01 21:58N 50°42' W 001°01'0 0.0
2017-Dec-01 21:28N 50°42' W 001°01'0 0.0
2017-Dec-01 20:58N 50°42' W 001°01'0 0.0
2017-Dec-01 20:28N 50°42' W 001°01'0 0.0
2017-Dec-01 19:58N 50°42' W 001°01'0 0.1
2017-Dec-01 19:28N 50°42' W 001°01'0 0.0
2017-Dec-01 18:58N 50°42' W 001°01'0 0.0
2017-Dec-01 18:28N 50°42' W 001°01'0 0.0
2017-Dec-01 17:58N 50°42' W 001°01'0 0.0
2017-Dec-01 17:28N 50°42' W 001°01'  

Dump ship's entire track history